createdAt,value
2023-05-25T00:01:00.552Z,10.50
2023-05-25T00:03:32.673Z,10.50
2023-05-25T00:06:01.822Z,10.60
2023-05-25T00:08:30.760Z,10.60
2023-05-25T00:10:58.752Z,10.80
2023-05-25T00:13:26.822Z,11.00
2023-05-25T00:15:54.672Z,11.00
2023-05-25T00:18:22.606Z,10.90
2023-05-25T00:20:54.319Z,10.80
2023-05-25T00:23:22.357Z,10.70
2023-05-25T00:25:50.095Z,10.60
2023-05-25T00:28:18.128Z,10.50
2023-05-25T00:30:46.223Z,10.40
2023-05-25T00:33:13.950Z,10.40
2023-05-25T00:35:44.977Z,10.30
2023-05-25T00:38:19.425Z,10.20
2023-05-25T00:40:47.711Z,10.20
2023-05-25T00:43:16.301Z,10.10
2023-05-25T00:45:44.560Z,10.10
2023-05-25T00:48:14.009Z,9.90
2023-05-25T00:50:45.879Z,9.90
2023-05-25T00:53:15.192Z,9.90
2023-05-25T00:56:11.048Z,9.80
2023-05-25T00:58:43.385Z,9.80
2023-05-25T01:01:15.571Z,9.90
2023-05-25T01:03:54.005Z,9.90
2023-05-25T01:06:24.105Z,9.90
2023-05-25T01:09:03.548Z,9.80
2023-05-25T01:11:44.029Z,9.80
2023-05-25T01:14:13.882Z,9.80
2023-05-25T01:16:44.223Z,9.70
2023-05-25T01:19:12.206Z,9.70
2023-05-25T01:22:12.182Z,9.60
2023-05-25T01:25:15.334Z,9.70
2023-05-25T01:28:06.961Z,9.70
2023-05-25T01:30:43.442Z,9.70
2023-05-25T01:33:12.477Z,9.70
2023-05-25T01:35:43.493Z,9.70
2023-05-25T01:38:12.314Z,9.70
2023-05-25T01:40:40.929Z,9.70
2023-05-25T01:43:08.848Z,9.60
2023-05-25T01:45:37.715Z,9.70
2023-05-25T01:48:51.280Z,9.70
2023-05-25T01:52:00.594Z,9.80
2023-05-25T01:54:47.514Z,10.00
2023-05-25T01:57:19.864Z,10.00
2023-05-25T01:59:52.992Z,10.00
2023-05-25T02:02:22.275Z,9.90
2023-05-25T02:04:57.673Z,9.90
2023-05-25T02:07:25.737Z,9.90
2023-05-25T02:09:53.499Z,9.80
2023-05-25T02:12:21.689Z,9.70
2023-05-25T02:14:49.517Z,9.60
2023-05-25T02:17:20.648Z,9.50
2023-05-25T02:19:53.124Z,9.40
2023-05-25T02:22:23.479Z,9.20
2023-05-25T02:24:51.391Z,9.10
2023-05-25T02:27:19.142Z,9.00
2023-05-25T02:29:49.343Z,9.00
2023-05-25T02:32:17.837Z,9.10
2023-05-25T02:34:47.101Z,9.10
2023-05-25T02:37:15.466Z,9.20
2023-05-25T02:39:43.823Z,9.20
2023-05-25T02:42:11.947Z,9.20
2023-05-25T02:44:39.799Z,9.20
2023-05-25T02:47:08.499Z,9.20
2023-05-25T02:49:36.430Z,9.20
2023-05-25T02:52:05.259Z,9.30
2023-05-25T02:54:33.263Z,9.40
2023-05-25T02:57:03.191Z,9.50
2023-05-25T02:59:32.047Z,9.50
2023-05-25T03:02:00.492Z,9.50
2023-05-25T03:04:31.251Z,9.40
2023-05-25T03:06:59.597Z,9.40
2023-05-25T03:09:27.857Z,9.40
2023-05-25T03:11:56.021Z,9.30
2023-05-25T03:14:25.476Z,9.30
2023-05-25T03:17:00.979Z,9.30
2023-05-25T03:19:28.982Z,9.20
2023-05-25T03:21:57.423Z,9.10
2023-05-25T03:24:26.947Z,9.00
2023-05-25T03:26:56.958Z,9.00
2023-05-25T03:29:24.802Z,8.90
2023-05-25T03:31:52.887Z,8.90
2023-05-25T03:34:24.828Z,8.90
2023-05-25T03:36:53.649Z,8.90
2023-05-25T03:39:22.629Z,8.80
2023-05-25T03:41:52.533Z,8.80
2023-05-25T03:44:20.646Z,8.90
2023-05-25T03:46:48.852Z,8.90
2023-05-25T03:49:17.158Z,8.90
2023-05-25T03:51:45.201Z,8.90
2023-05-25T03:54:14.834Z,8.90
2023-05-25T03:56:42.616Z,8.80
2023-05-25T03:59:12.626Z,8.80
2023-05-25T04:01:41.734Z,8.70
2023-05-25T04:04:10.181Z,8.70
2023-05-25T04:06:38.506Z,8.60
2023-05-25T04:09:07.884Z,8.60
2023-05-25T04:11:35.814Z,8.60
2023-05-25T04:14:03.921Z,8.50
2023-05-25T04:16:35.842Z,8.50
2023-05-25T04:19:04.973Z,8.50
2023-05-25T04:21:33.138Z,8.60
2023-05-25T04:24:01.440Z,8.60
2023-05-25T04:26:30.457Z,8.70
2023-05-25T04:28:59.409Z,8.70
2023-05-25T04:31:35.933Z,8.80
2023-05-25T04:34:29.893Z,9.00
2023-05-25T04:37:09.042Z,9.10
2023-05-25T04:39:37.710Z,9.20
2023-05-25T04:42:06.227Z,9.30
2023-05-25T04:44:36.294Z,9.40
2023-05-25T04:47:08.183Z,9.40
2023-05-25T04:49:36.888Z,9.70
2023-05-25T04:52:06.063Z,9.80
2023-05-25T04:54:35.048Z,10.00
2023-05-25T04:57:04.225Z,10.00
2023-05-25T04:59:33.575Z,10.30
2023-05-25T05:02:02.045Z,10.50
2023-05-25T05:04:30.667Z,10.50
2023-05-25T05:06:59.983Z,10.40
2023-05-25T05:09:30.621Z,10.30
2023-05-25T05:12:01.921Z,10.30
2023-05-25T05:14:32.359Z,10.50
2023-05-25T05:17:00.382Z,10.70
2023-05-25T05:19:29.422Z,10.90
2023-05-25T05:21:57.652Z,11.00
2023-05-25T05:24:27.485Z,11.00
2023-05-25T05:26:58.930Z,11.10
2023-05-25T05:29:39.948Z,11.20
2023-05-25T05:32:09.210Z,11.30
2023-05-25T05:34:37.677Z,11.40
2023-05-25T05:37:11.505Z,12.00
2023-05-25T05:39:39.590Z,13.00
2023-05-25T05:42:08.733Z,13.60
2023-05-25T05:44:37.221Z,14.70
2023-05-25T05:47:05.874Z,15.20
2023-05-25T05:49:34.557Z,15.60
2023-05-25T05:52:04.442Z,16.10
2023-05-25T05:54:34.282Z,16.50
2023-05-25T05:57:07.560Z,16.70
2023-05-25T05:59:35.780Z,16.90
2023-05-25T06:02:04.767Z,17.40
2023-05-25T06:04:33.830Z,17.30
2023-05-25T06:07:02.063Z,17.50
2023-05-25T06:09:30.862Z,17.90
2023-05-25T06:12:01.981Z,18.10
2023-05-25T06:14:30.253Z,18.40
2023-05-25T06:17:02.418Z,19.00
2023-05-25T06:19:32.441Z,19.00
2023-05-25T06:22:00.874Z,19.50
2023-05-25T06:24:29.166Z,19.40
2023-05-25T06:26:57.582Z,19.60
2023-05-25T06:29:26.385Z,19.30
2023-05-25T06:31:55.570Z,19.40
2023-05-25T06:34:24.062Z,19.60
2023-05-25T06:36:54.042Z,19.90
2023-05-25T06:39:23.045Z,19.70
2023-05-25T06:41:51.626Z,20.20
2023-05-25T06:44:28.456Z,19.70
2023-05-25T06:46:56.608Z,19.90
2023-05-25T06:49:25.967Z,20.30
2023-05-25T06:51:53.958Z,20.20
2023-05-25T06:54:21.797Z,19.90
2023-05-25T06:56:50.011Z,19.20
2023-05-25T06:59:18.638Z,19.40
2023-05-25T07:01:49.823Z,20.00
2023-05-25T07:04:18.275Z,20.70
2023-05-25T07:06:46.265Z,21.10
2023-05-25T07:09:14.405Z,21.60
2023-05-25T07:11:42.208Z,21.50
2023-05-25T07:14:09.974Z,21.50
2023-05-25T07:16:37.982Z,21.60
2023-05-25T07:19:06.080Z,20.20
2023-05-25T07:21:34.062Z,20.30
2023-05-25T07:24:01.884Z,21.20
2023-05-25T07:26:32.216Z,21.40
2023-05-25T07:29:01.034Z,20.30
2023-05-25T07:31:28.936Z,19.10
2023-05-25T07:33:56.657Z,18.10
2023-05-25T07:36:25.155Z,17.30
2023-05-25T07:38:53.170Z,17.20
2023-05-25T07:41:21.465Z,17.50
2023-05-25T07:43:49.266Z,17.70
2023-05-25T07:46:17.607Z,18.20
2023-05-25T07:48:45.516Z,18.80
2023-05-25T07:51:13.722Z,19.10
2023-05-25T07:53:42.688Z,19.10
2023-05-25T07:56:11.277Z,18.50
2023-05-25T07:58:39.200Z,17.90
2023-05-25T08:01:07.374Z,17.20
2023-05-25T08:03:48.085Z,16.70
2023-05-25T08:06:17.694Z,16.60
2023-05-25T08:08:45.888Z,16.80
2023-05-25T08:11:17.259Z,16.60
2023-05-25T08:13:45.338Z,16.60
2023-05-25T08:16:13.074Z,17.70
2023-05-25T08:18:41.967Z,17.80
2023-05-25T08:21:09.764Z,17.50
2023-05-25T08:23:42.406Z,16.80
2023-05-25T08:26:31.332Z,16.60
2023-05-25T08:29:01.034Z,16.40
2023-05-25T08:31:28.907Z,16.40
2023-05-25T08:33:57.061Z,16.30
2023-05-25T08:36:26.942Z,16.70
2023-05-25T08:38:55.232Z,16.90
2023-05-25T08:41:23.293Z,16.70
2023-05-25T08:43:51.960Z,16.40
2023-05-25T08:46:31.532Z,16.20
2023-05-25T08:49:15.301Z,15.90
2023-05-25T08:51:53.545Z,15.90
2023-05-25T08:54:32.157Z,16.10
2023-05-25T08:57:24.082Z,17.10
2023-05-25T09:00:11.217Z,17.20
2023-05-25T09:03:18.491Z,17.30
2023-05-25T09:05:47.943Z,17.30
2023-05-25T09:08:17.368Z,16.90
2023-05-25T09:10:45.281Z,16.80
2023-05-25T09:13:21.898Z,16.60
2023-05-25T09:15:53.207Z,16.60
2023-05-25T09:18:21.846Z,16.80
2023-05-25T09:20:50.627Z,16.50
2023-05-25T09:23:19.623Z,15.90
2023-05-25T09:25:50.950Z,16.10
2023-05-25T09:30:53.691Z,16.00
2023-05-25T09:33:22.169Z,16.10
2023-05-25T09:35:51.791Z,16.30
2023-05-25T09:38:20.343Z,16.50
2023-05-25T09:40:49.090Z,16.50
2023-05-25T09:43:28.266Z,16.10
2023-05-25T09:46:05.659Z,16.00
2023-05-25T09:48:34.532Z,16.00
2023-05-25T09:51:02.492Z,16.20
2023-05-25T09:53:32.171Z,16.40
2023-05-25T09:56:03.765Z,16.40
2023-05-25T09:58:32.030Z,16.30
2023-05-25T10:01:00.947Z,16.40
2023-05-25T10:03:28.998Z,16.20
2023-05-25T10:05:57.790Z,15.90
2023-05-25T10:08:28.954Z,15.80
2023-05-25T10:10:57.255Z,15.60
2023-05-25T10:13:30.732Z,15.70
2023-05-25T10:16:00.480Z,15.70
2023-05-25T10:18:40.364Z,15.60
2023-05-25T10:21:10.835Z,15.60
2023-05-25T10:23:54.800Z,16.00
2023-05-25T10:26:29.366Z,16.90
2023-05-25T10:29:04.759Z,17.60
2023-05-25T10:31:37.737Z,17.90
2023-05-25T10:34:06.202Z,17.80
2023-05-25T10:36:36.947Z,17.50
2023-05-25T10:39:09.381Z,17.40
2023-05-25T10:41:37.488Z,17.70
2023-05-25T10:44:05.823Z,17.70
2023-05-25T10:46:33.820Z,17.30
2023-05-25T10:49:02.643Z,17.30
2023-05-25T10:51:43.937Z,17.40
2023-05-25T10:54:15.340Z,17.50
2023-05-25T10:57:18.867Z,17.00
2023-05-25T11:00:08.366Z,16.90
2023-05-25T11:02:56.096Z,16.90
2023-05-25T11:05:26.945Z,17.00
2023-05-25T11:08:00.678Z,16.70
2023-05-25T11:10:50.087Z,16.30
2023-05-25T11:13:40.811Z,16.00
2023-05-25T11:16:30.867Z,16.40
2023-05-25T11:18:59.864Z,16.70
2023-05-25T11:21:34.868Z,17.10
2023-05-25T11:24:18.095Z,17.00
2023-05-25T11:27:01.612Z,17.50
2023-05-25T11:29:33.275Z,17.90
2023-05-25T11:32:01.439Z,17.80
2023-05-25T11:34:34.431Z,17.60
2023-05-25T11:37:02.436Z,17.50
2023-05-25T11:39:34.234Z,17.20
2023-05-25T11:42:11.462Z,17.00
2023-05-25T11:44:39.425Z,16.80
2023-05-25T11:47:14.535Z,17.00
2023-05-25T11:49:49.924Z,17.30
2023-05-25T11:52:22.336Z,17.20
2023-05-25T11:54:50.455Z,17.40
2023-05-25T11:57:25.567Z,17.30
2023-05-25T12:00:07.127Z,17.20
2023-05-25T12:02:44.205Z,17.20
2023-05-25T12:05:12.221Z,17.50
2023-05-25T12:07:47.308Z,17.90
2023-05-25T12:10:19.390Z,18.20
2023-05-25T12:12:52.322Z,18.00
2023-05-25T12:15:26.643Z,18.20
2023-05-25T12:17:55.145Z,18.70
2023-05-25T12:20:23.571Z,18.80
2023-05-25T12:22:52.362Z,18.90
2023-05-25T12:25:26.023Z,18.80
2023-05-25T12:28:16.299Z,18.80
2023-05-25T12:30:45.594Z,18.40
2023-05-25T12:33:15.722Z,18.30
2023-05-25T12:35:51.227Z,18.10
2023-05-25T12:38:24.764Z,18.10
2023-05-25T12:41:08.914Z,18.00
2023-05-25T12:43:44.202Z,17.90
2023-05-25T12:46:12.468Z,17.60
2023-05-25T12:48:40.296Z,17.90
2023-05-25T12:51:10.182Z,18.10
2023-05-25T12:53:58.941Z,18.60
2023-05-25T12:56:27.089Z,19.00
2023-05-25T12:58:55.000Z,18.90
2023-05-25T13:01:23.090Z,18.50
2023-05-25T13:03:51.847Z,18.00
2023-05-25T13:06:19.732Z,18.00
2023-05-25T13:08:48.610Z,18.00
2023-05-25T13:11:17.199Z,18.00
2023-05-25T13:13:45.396Z,18.10
2023-05-25T13:16:13.249Z,18.40
2023-05-25T13:18:41.375Z,18.60
2023-05-25T13:21:10.125Z,18.40
2023-05-25T13:23:38.132Z,18.40
2023-05-25T13:26:06.753Z,18.40
2023-05-25T13:28:34.563Z,18.60
2023-05-25T13:31:02.807Z,18.60
2023-05-25T13:33:30.840Z,18.90
2023-05-25T13:35:59.073Z,19.30
2023-05-25T13:38:27.760Z,18.90
2023-05-25T13:40:55.659Z,18.90
2023-05-25T13:43:23.365Z,18.70
2023-05-25T13:45:51.216Z,18.50
2023-05-25T13:48:19.342Z,18.30
2023-05-25T13:50:47.268Z,18.40
2023-05-25T13:53:15.218Z,18.70
2023-05-25T13:55:44.453Z,19.10
2023-05-25T13:58:12.300Z,19.30
2023-05-25T14:00:40.129Z,19.40
2023-05-25T14:03:07.978Z,19.20
2023-05-25T14:05:35.969Z,19.00
2023-05-25T14:08:05.084Z,19.00
2023-05-25T14:10:33.013Z,18.90
2023-05-25T14:13:01.130Z,19.20
2023-05-25T14:15:28.877Z,19.30
2023-05-25T14:17:57.496Z,19.70
2023-05-25T14:20:26.516Z,19.80
2023-05-25T14:22:56.468Z,19.40
2023-05-25T14:25:24.952Z,19.30
2023-05-25T14:27:52.696Z,19.20
2023-05-25T14:30:21.187Z,19.00
2023-05-25T14:32:49.066Z,18.80
2023-05-25T14:35:16.946Z,18.30
2023-05-25T14:37:44.708Z,18.30
2023-05-25T14:40:13.830Z,18.30
2023-05-25T14:42:41.574Z,18.50
2023-05-25T14:45:11.375Z,19.10
2023-05-25T14:47:41.042Z,19.50
2023-05-25T14:50:09.423Z,19.50
2023-05-25T14:52:37.466Z,19.30
2023-05-25T14:55:06.148Z,19.00
2023-05-25T14:57:34.164Z,18.70
2023-05-25T15:00:02.206Z,18.40
2023-05-25T15:02:30.210Z,18.50
2023-05-25T15:04:58.758Z,18.50
2023-05-25T15:07:26.934Z,18.60
2023-05-25T15:09:54.919Z,18.60
2023-05-25T15:12:22.647Z,18.90
2023-05-25T15:14:50.648Z,18.90
2023-05-25T15:17:18.507Z,18.80
2023-05-25T15:19:46.193Z,18.70
2023-05-25T15:22:14.068Z,18.40
2023-05-25T15:24:42.945Z,18.40
2023-05-25T15:27:10.779Z,18.50
2023-05-25T15:29:38.691Z,18.80
2023-05-25T15:32:08.187Z,18.60
2023-05-25T15:34:37.034Z,18.90
2023-05-25T15:37:05.644Z,19.20
2023-05-25T15:39:33.572Z,19.70
2023-05-25T15:42:02.002Z,19.80
2023-05-25T15:44:30.425Z,20.00
2023-05-25T15:46:58.229Z,20.20
2023-05-25T15:49:26.239Z,20.10
2023-05-25T15:51:54.003Z,19.70
2023-05-25T15:54:21.860Z,19.30
2023-05-25T15:56:49.767Z,19.10
2023-05-25T15:59:17.588Z,19.10
2023-05-25T16:01:45.578Z,19.20
2023-05-25T16:04:13.580Z,19.40
2023-05-25T16:06:41.429Z,19.70
2023-05-25T16:09:09.336Z,19.50
2023-05-25T16:11:37.231Z,19.10
2023-05-25T16:14:05.054Z,19.00
2023-05-25T16:16:33.001Z,19.40
2023-05-25T16:19:00.949Z,19.50
2023-05-25T16:21:29.035Z,19.80
2023-05-25T16:23:56.806Z,19.90
2023-05-25T16:26:26.707Z,19.80
2023-05-25T16:28:54.537Z,19.60
2023-05-25T16:31:22.465Z,19.10
2023-05-25T16:33:50.288Z,18.70
2023-05-25T16:36:18.431Z,18.40
2023-05-25T16:38:46.292Z,18.20
2023-05-25T16:41:14.158Z,18.00
2023-05-25T16:43:41.871Z,18.10
2023-05-25T16:46:09.784Z,18.20
2023-05-25T16:48:37.602Z,18.40
2023-05-25T16:51:06.441Z,18.50
2023-05-25T16:53:34.524Z,18.70
2023-05-25T16:56:02.563Z,19.00
2023-05-25T16:58:30.340Z,19.20
2023-05-25T17:00:58.149Z,19.10
2023-05-25T17:03:26.312Z,18.80
2023-05-25T17:05:54.215Z,18.60
2023-05-25T17:08:22.097Z,18.50
2023-05-25T17:10:50.820Z,18.30
2023-05-25T17:13:18.658Z,18.30
2023-05-25T17:15:46.826Z,18.40
2023-05-25T17:18:16.022Z,18.50
2023-05-25T17:20:44.354Z,18.30
2023-05-25T17:23:12.272Z,18.30
2023-05-25T17:25:40.688Z,18.20
2023-05-25T17:28:08.867Z,18.10
2023-05-25T17:30:37.066Z,18.10
2023-05-25T17:33:05.147Z,18.10
2023-05-25T17:35:32.950Z,18.20
2023-05-25T17:38:00.696Z,18.20
2023-05-25T17:40:28.613Z,18.40
2023-05-25T17:42:56.353Z,18.30
2023-05-25T17:45:24.190Z,18.20
2023-05-25T17:47:52.096Z,18.10
2023-05-25T17:50:20.217Z,17.90
2023-05-25T17:52:48.071Z,17.80
2023-05-25T17:55:16.002Z,17.80
2023-05-25T17:57:44.036Z,17.90
2023-05-25T18:00:13.527Z,17.80
2023-05-25T18:02:41.618Z,17.80
2023-05-25T18:05:10.039Z,17.80
2023-05-25T18:07:38.011Z,17.80
2023-05-25T18:10:06.766Z,17.70
2023-05-25T18:12:34.438Z,17.70
2023-05-25T18:15:02.779Z,17.70
2023-05-25T18:17:30.596Z,17.70
2023-05-25T18:19:58.475Z,17.50
2023-05-25T18:22:26.339Z,17.40
2023-05-25T18:24:57.128Z,17.30
2023-05-25T18:27:27.694Z,17.40
2023-05-25T18:29:55.814Z,17.50
2023-05-25T18:32:23.848Z,17.40
2023-05-25T18:34:51.651Z,17.20
2023-05-25T18:37:19.525Z,17.10
2023-05-25T18:39:47.329Z,17.10
2023-05-25T18:42:15.265Z,16.90
2023-05-25T18:44:42.955Z,17.00
2023-05-25T18:47:11.640Z,16.90
2023-05-25T18:49:39.600Z,16.80
2023-05-25T18:52:09.463Z,16.60
2023-05-25T18:54:39.459Z,16.70
2023-05-25T18:57:07.570Z,16.60
2023-05-25T18:59:35.377Z,16.40
2023-05-25T19:02:03.507Z,16.40
2023-05-25T19:04:31.442Z,16.40
2023-05-25T19:06:59.669Z,16.30
2023-05-25T19:09:27.957Z,16.20
2023-05-25T19:11:55.876Z,16.00
2023-05-25T19:14:23.707Z,15.90
2023-05-25T19:16:51.608Z,15.90
2023-05-25T19:19:19.757Z,15.70
2023-05-25T19:21:47.361Z,15.60
2023-05-25T19:24:15.139Z,15.40
2023-05-25T19:26:42.875Z,15.40
2023-05-25T19:29:10.832Z,15.30
2023-05-25T19:31:38.738Z,15.30
2023-05-25T19:34:06.757Z,15.30
2023-05-25T19:36:34.736Z,15.20
2023-05-25T19:39:02.574Z,15.20
2023-05-25T19:41:30.371Z,15.30
2023-05-25T19:43:58.232Z,15.50
2023-05-25T19:46:26.156Z,15.60
2023-05-25T19:48:54.061Z,15.40
2023-05-25T19:51:23.923Z,15.20
2023-05-25T19:53:52.259Z,15.10
2023-05-25T19:56:20.026Z,14.90
2023-05-25T19:58:47.940Z,14.80
2023-05-25T20:01:16.168Z,14.80
2023-05-25T20:03:44.846Z,14.70
2023-05-25T20:06:12.728Z,14.60
2023-05-25T20:08:40.558Z,14.60
2023-05-25T20:11:08.591Z,14.60
2023-05-25T20:13:36.337Z,14.60
2023-05-25T20:16:04.213Z,14.60
2023-05-25T20:18:32.123Z,14.50
2023-05-25T20:20:59.958Z,14.40
2023-05-25T20:23:31.121Z,14.40
2023-05-25T20:25:59.065Z,14.40
2023-05-25T20:28:26.926Z,14.30
2023-05-25T20:30:54.813Z,14.20
2023-05-25T20:33:22.843Z,14.20
2023-05-25T20:35:51.133Z,14.10
2023-05-25T20:38:18.928Z,14.00
2023-05-25T20:40:46.712Z,14.00
2023-05-25T20:43:14.492Z,14.00
2023-05-25T20:45:42.311Z,14.00
2023-05-25T20:48:10.085Z,14.20
2023-05-25T20:50:37.909Z,14.20
2023-05-25T20:53:05.790Z,14.10
2023-05-25T20:55:33.596Z,14.00
2023-05-25T20:58:10.435Z,14.00
2023-05-25T21:00:41.094Z,14.00
2023-05-25T21:03:10.432Z,13.90
2023-05-25T21:05:38.867Z,13.90
2023-05-25T21:08:06.846Z,13.80
2023-05-25T21:10:34.825Z,13.70
2023-05-25T21:13:02.586Z,13.50
2023-05-25T21:15:30.896Z,13.50
2023-05-25T21:17:58.878Z,13.60
2023-05-25T21:20:27.403Z,13.60
2023-05-25T21:22:55.356Z,13.50
2023-05-25T21:25:23.180Z,13.50
2023-05-25T21:27:56.764Z,13.40
2023-05-25T21:30:25.055Z,13.30
2023-05-25T21:32:53.185Z,13.30
2023-05-25T21:35:21.662Z,13.20
2023-05-25T21:37:49.430Z,13.20
2023-05-25T21:40:17.429Z,13.20
2023-05-25T21:42:45.564Z,13.20
2023-05-25T21:45:14.042Z,13.30
2023-05-25T21:47:42.117Z,13.30
2023-05-25T21:50:10.213Z,13.30
2023-05-25T21:52:38.228Z,13.20
2023-05-25T21:55:07.115Z,13.00
2023-05-25T21:57:34.844Z,13.00
2023-05-25T22:00:02.856Z,13.10
2023-05-25T22:02:41.306Z,13.00
2023-05-25T22:05:09.422Z,12.90
2023-05-25T22:07:37.471Z,12.90
2023-05-25T22:10:08.921Z,12.90
2023-05-25T22:12:36.810Z,12.90
2023-05-25T22:15:07.225Z,12.80
2023-05-25T22:17:35.247Z,12.90
2023-05-25T22:22:33.842Z,12.60
2023-05-25T22:25:01.566Z,12.60
2023-05-25T22:27:29.570Z,12.50
2023-05-25T22:29:59.101Z,12.50
2023-05-25T22:32:27.584Z,12.50
2023-05-25T22:34:55.401Z,12.40
2023-05-25T22:37:23.569Z,12.40
2023-05-25T22:39:51.522Z,12.40
2023-05-25T22:42:19.385Z,12.40
2023-05-25T22:44:49.470Z,12.30
2023-05-25T22:47:17.955Z,12.20
2023-05-25T22:49:45.820Z,12.20
2023-05-25T22:52:13.820Z,12.20
2023-05-25T22:54:43.503Z,12.10
2023-05-25T22:57:11.442Z,12.10
2023-05-25T22:59:39.249Z,12.00
2023-05-25T23:02:07.632Z,12.00
2023-05-25T23:04:36.948Z,12.00
2023-05-25T23:07:05.012Z,12.00
2023-05-25T23:09:32.944Z,11.90
2023-05-25T23:12:00.992Z,11.90
2023-05-25T23:14:30.728Z,11.80
2023-05-25T23:16:58.683Z,11.70
2023-05-25T23:19:26.278Z,11.60
2023-05-25T23:21:54.573Z,11.60
2023-05-25T23:24:22.568Z,11.70
2023-05-25T23:26:50.527Z,11.50
2023-05-25T23:29:18.406Z,11.50
2023-05-25T23:31:47.600Z,11.50
2023-05-25T23:34:16.363Z,11.50
2023-05-25T23:36:44.241Z,11.30
2023-05-25T23:39:13.268Z,11.30
2023-05-25T23:41:41.264Z,11.30
2023-05-25T23:44:09.283Z,11.30
2023-05-25T23:46:37.130Z,11.20
2023-05-25T23:49:05.168Z,11.10
2023-05-25T23:51:33.001Z,11.00
2023-05-25T23:54:00.908Z,10.80
2023-05-25T23:56:28.661Z,10.70
2023-05-25T23:58:57.006Z,10.60
